Shoukeimaruno.3 — JI3587 — position and weather

sailwx.info

Track history (hours):
 
Tides and Currents Weather Stations Pressure Air Temp Water Temp Dewpoint Dewpoint Depression Visibility Wind Speed Wind Dir Waves Ship Positions

Shoukeimaruno.3

Last reported at 2014-Dec-19 14:25 UTC. Time now 2014-Dec-21 18:41 UTC.
Position N 35°09' E 139°43'.

Length 77 m; draft 4.2 m.

Type: Cargo ship. MMSI: 431300325.

Date/timePositionNaut miles runAvg speedWind from/ knotsBaromVisibWave heightAir tempDewpointWater temp
2014-Dec-19 14:25N 35°09' E 139°43'910.3
2014-Dec-19 13:34N 35°17' E 139°45'8 7.4
2014-Dec-19 12:31N 35°24' E 139°40'0 0.0
2014-Dec-19 11:31N 35°24' E 139°40'0 0.0
2014-Dec-19 10:10N 35°24' E 139°40'0 0.0
2014-Dec-19 09:31N 35°24' E 139°40'0 0.0
2014-Dec-19 08:31N 35°24' E 139°40'1 0.7
2014-Dec-19 07:33N 35°24' E 139°40'0 0.0
2014-Dec-19 06:33N 35°24' E 139°40'0 0.0
2014-Dec-19 05:33N 35°24' E 139°40'0 0.0
2014-Dec-19 04:30N 35°24' E 139°40'0 0.0
2014-Dec-19 03:33N 35°24' E 139°40'0 0.0
2014-Dec-19 02:30N 35°24' E 139°40'0 0.0
2014-Dec-19 01:33N 35°24' E 139°40'0 0.0
2014-Dec-19 00:33N 35°24' E 139°40'0 0.1
2014-Dec-18 23:33N 35°24' E 139°40'0 0.0
2014-Dec-18 22:33N 35°24' E 139°40'0 0.0
2014-Dec-18 21:30N 35°24' E 139°40'0 0.0
2014-Dec-18 20:33N 35°24' E 139°40'0 0.0
2014-Dec-18 19:33N 35°24' E 139°40'0 0.0
2014-Dec-18 18:33N 35°24' E 139°40'0 0.0
2014-Dec-18 17:33N 35°24' E 139°40'3 2.5
2014-Dec-18 16:33N 35°22' E 139°42'1111.0
2014-Dec-18 15:33N 35°11' E 139°46'1411.1
2014-Dec-18 14:19N 34°60' E 139°37'  
2014-Dec-13 17:33N 35°11' E 139°46'1110.6
2014-Dec-13 16:34N 35°22' E 139°42'9 9.1
2014-Dec-13 15:33N 35°30' E 139°46'1 1.4
2014-Dec-13 14:30N 35°30' E 139°44'0 0.0
2014-Dec-13 13:33N 35°30' E 139°44'0 0.0
2014-Dec-13 12:33N 35°30' E 139°44'0 0.0
2014-Dec-13 11:33N 35°30' E 139°44'0 0.0
2014-Dec-13 10:33N 35°30' E 139°44'0 0.0
2014-Dec-13 09:18N 35°30' E 139°44'0 0.1
2014-Dec-13 08:33N 35°30' E 139°44'0 0.0
2014-Dec-13 07:27N 35°30' E 139°44'0 0.0
2014-Dec-13 06:33N 35°30' E 139°44'0 0.0
2014-Dec-13 05:33N 35°30' E 139°44'1 1.1
2014-Dec-13 04:33N 35°29' E 139°43'0 0.0
2014-Dec-13 03:20N 35°29' E 139°43'0 0.0
2014-Dec-13 02:32N 35°29' E 139°43'0 0.0
2014-Dec-13 01:32N 35°29' E 139°43'0 0.0
2014-Dec-13 00:32N 35°29' E 139°43'0 0.0
2014-Dec-12 23:32N 35°29' E 139°43'1 1.2
2014-Dec-12 22:33N 35°29' E 139°42'2 2.3
2014-Dec-12 21:32N 35°26' E 139°43'0 0.0
2014-Dec-12 20:32N 35°26' E 139°43'0 0.0
2014-Dec-12 19:26N 35°26' E 139°43'0 0.0
2014-Dec-12 18:32N 35°26' E 139°43'0 0.0
2014-Dec-12 17:32N 35°26' E 139°43'0 0.0
2014-Dec-12 16:32N 35°26' E 139°43'0 0.0
2014-Dec-12 15:32N 35°26' E 139°43'0 0.0
2014-Dec-12 14:32N 35°26' E 139°43'0 0.0
2014-Dec-12 13:26N 35°26' E 139°43'0 0.0
2014-Dec-12 12:32N 35°26' E 139°43'0 0.0
2014-Dec-12 11:29N 35°26' E 139°43'0 0.1
2014-Dec-12 10:32N 35°26' E 139°43'0 0.0
2014-Dec-12 09:32N 35°26' E 139°43'0 0.0
2014-Dec-12 08:32N 35°26' E 139°43'0 0.0
2014-Dec-12 07:32N 35°26' E 139°43'0 0.0
2014-Dec-12 06:32N 35°26' E 139°43'0 0.0
2014-Dec-12 05:32N 35°26' E 139°43'0 0.0
2014-Dec-12 04:32N 35°26' E 139°43'0 0.0
2014-Dec-12 03:32N 35°26' E 139°43'0 0.0
2014-Dec-12 02:32N 35°26' E 139°43'0 0.0
2014-Dec-12 01:32N 35°26' E 139°43'0 0.0
2014-Dec-12 00:29N 35°26' E 139°43'0 0.0
2014-Dec-11 23:32N 35°26' E 139°43'4 4.6
2014-Dec-11 22:34N 35°22' E 139°45'1110.9
2014-Dec-11 21:33N 35°11' E 139°47'  
Track history (hours):
 
Tides and Currents Weather Stations Pressure Air Temp Water Temp Dewpoint Dewpoint Depression Visibility Wind Speed Wind Dir Waves Ship Positions

Shoukeimaruno.3

Last reported at 2014-Dec-19 14:25 UTC. Time now 2014-Dec-21 18:41 UTC.
Position N 35°09' E 139°43'.

Length 77 m; draft 4.2 m.

Type: Cargo ship. MMSI: 431300325.

Date/timePositionNaut miles runAvg speedWind from/ knotsBaromVisibWave heightAir tempDewpointWater temp
2014-Dec-19 14:25N 35°09' E 139°43'910.3
2014-Dec-19 13:34N 35°17' E 139°45'8 7.4
2014-Dec-19 12:31N 35°24' E 139°40'0 0.0
2014-Dec-19 11:31N 35°24' E 139°40'0 0.0
2014-Dec-19 10:10N 35°24' E 139°40'0 0.0
2014-Dec-19 09:31N 35°24' E 139°40'0 0.0
2014-Dec-19 08:31N 35°24' E 139°40'1 0.7
2014-Dec-19 07:33N 35°24' E 139°40'0 0.0
2014-Dec-19 06:33N 35°24' E 139°40'0 0.0
2014-Dec-19 05:33N 35°24' E 139°40'0 0.0
2014-Dec-19 04:30N 35°24' E 139°40'0 0.0
2014-Dec-19 03:33N 35°24' E 139°40'0 0.0
2014-Dec-19 02:30N 35°24' E 139°40'0 0.0
2014-Dec-19 01:33N 35°24' E 139°40'0 0.0
2014-Dec-19 00:33N 35°24' E 139°40'0 0.1
2014-Dec-18 23:33N 35°24' E 139°40'0 0.0
2014-Dec-18 22:33N 35°24' E 139°40'0 0.0
2014-Dec-18 21:30N 35°24' E 139°40'0 0.0
2014-Dec-18 20:33N 35°24' E 139°40'0 0.0
2014-Dec-18 19:33N 35°24' E 139°40'0 0.0
2014-Dec-18 18:33N 35°24' E 139°40'0 0.0
2014-Dec-18 17:33N 35°24' E 139°40'3 2.5
2014-Dec-18 16:33N 35°22' E 139°42'1111.0
2014-Dec-18 15:33N 35°11' E 139°46'1411.1
2014-Dec-18 14:19N 34°60' E 139°37'  
2014-Dec-13 17:33N 35°11' E 139°46'1110.6
2014-Dec-13 16:34N 35°22' E 139°42'9 9.1
2014-Dec-13 15:33N 35°30' E 139°46'1 1.4
2014-Dec-13 14:30N 35°30' E 139°44'0 0.0
2014-Dec-13 13:33N 35°30' E 139°44'0 0.0
2014-Dec-13 12:33N 35°30' E 139°44'0 0.0
2014-Dec-13 11:33N 35°30' E 139°44'0 0.0
2014-Dec-13 10:33N 35°30' E 139°44'0 0.0
2014-Dec-13 09:18N 35°30' E 139°44'0 0.1
2014-Dec-13 08:33N 35°30' E 139°44'0 0.0
2014-Dec-13 07:27N 35°30' E 139°44'0 0.0
2014-Dec-13 06:33N 35°30' E 139°44'0 0.0
2014-Dec-13 05:33N 35°30' E 139°44'1 1.1
2014-Dec-13 04:33N 35°29' E 139°43'0 0.0
2014-Dec-13 03:20N 35°29' E 139°43'0 0.0
2014-Dec-13 02:32N 35°29' E 139°43'0 0.0
2014-Dec-13 01:32N 35°29' E 139°43'0 0.0
2014-Dec-13 00:32N 35°29' E 139°43'0 0.0
2014-Dec-12 23:32N 35°29' E 139°43'1 1.2
2014-Dec-12 22:33N 35°29' E 139°42'2 2.3
2014-Dec-12 21:32N 35°26' E 139°43'0 0.0
2014-Dec-12 20:32N 35°26' E 139°43'0 0.0
2014-Dec-12 19:26N 35°26' E 139°43'0 0.0
2014-Dec-12 18:32N 35°26' E 139°43'0 0.0
2014-Dec-12 17:32N 35°26' E 139°43'0 0.0
2014-Dec-12 16:32N 35°26' E 139°43'0 0.0
2014-Dec-12 15:32N 35°26' E 139°43'0 0.0
2014-Dec-12 14:32N 35°26' E 139°43'0 0.0
2014-Dec-12 13:26N 35°26' E 139°43'0 0.0
2014-Dec-12 12:32N 35°26' E 139°43'0 0.0
2014-Dec-12 11:29N 35°26' E 139°43'0 0.1
2014-Dec-12 10:32N 35°26' E 139°43'0 0.0
2014-Dec-12 09:32N 35°26' E 139°43'0 0.0
2014-Dec-12 08:32N 35°26' E 139°43'0 0.0
2014-Dec-12 07:32N 35°26' E 139°43'0 0.0
2014-Dec-12 06:32N 35°26' E 139°43'0 0.0
2014-Dec-12 05:32N 35°26' E 139°43'0 0.0
2014-Dec-12 04:32N 35°26' E 139°43'0 0.0
2014-Dec-12 03:32N 35°26' E 139°43'0 0.0
2014-Dec-12 02:32N 35°26' E 139°43'0 0.0
2014-Dec-12 01:32N 35°26' E 139°43'0 0.0
2014-Dec-12 00:29N 35°26' E 139°43'0 0.0
2014-Dec-11 23:32N 35°26' E 139°43'4 4.6
2014-Dec-11 22:34N 35°22' E 139°45'1110.9
2014-Dec-11 21:33N 35°11' E 139°47'  

Dump ship's entire track history